createdAt,value
2022-11-03T00:02:10.078Z,14.43
2022-11-03T00:04:36.972Z,14.15
2022-11-03T00:07:03.789Z,14.15
2022-11-03T00:09:31.812Z,13.99
2022-11-03T00:11:59.050Z,14.03
2022-11-03T00:14:25.876Z,13.80
2022-11-03T00:16:52.736Z,13.84
2022-11-03T00:19:19.799Z,13.74
2022-11-03T00:21:46.849Z,13.80
2022-11-03T00:24:14.122Z,13.83
2022-11-03T00:26:40.955Z,13.69
2022-11-03T00:29:16.927Z,13.69
2022-11-03T00:31:45.250Z,13.69
2022-11-03T00:34:12.823Z,13.65
2022-11-03T00:36:44.444Z,13.60
2022-11-03T00:39:12.081Z,13.73
2022-11-03T00:41:39.894Z,13.80
2022-11-03T00:44:07.081Z,13.83
2022-11-03T00:46:36.635Z,13.94
2022-11-03T00:49:05.539Z,13.98
2022-11-03T00:51:34.492Z,13.92
2022-11-03T00:54:03.254Z,14.01
2022-11-03T00:56:32.254Z,14.08
2022-11-03T00:59:00.452Z,14.02
2022-11-03T01:01:39.250Z,14.08
2022-11-03T01:04:28.742Z,14.07
2022-11-03T01:06:58.464Z,14.11
2022-11-03T01:09:31.322Z,14.10
2022-11-03T01:12:03.115Z,14.06
2022-11-03T01:14:39.734Z,14.04
2022-11-03T01:17:08.754Z,14.01
2022-11-03T01:19:35.602Z,14.05
2022-11-03T01:22:06.357Z,14.00
2022-11-03T01:24:36.516Z,13.95
2022-11-03T01:27:03.532Z,13.96
2022-11-03T01:29:30.287Z,13.95
2022-11-03T01:31:58.082Z,13.96
2022-11-03T01:34:24.943Z,13.76
2022-11-03T01:36:51.775Z,13.87
2022-11-03T01:39:19.704Z,13.89
2022-11-03T01:41:48.854Z,13.83
2022-11-03T01:44:15.599Z,13.88
2022-11-03T01:46:42.314Z,13.87
2022-11-03T01:49:16.690Z,13.78
2022-11-03T01:51:46.813Z,13.81
2022-11-03T01:54:18.471Z,13.83
2022-11-03T01:56:48.381Z,13.73
2022-11-03T01:59:16.775Z,13.79
2022-11-03T02:01:45.637Z,13.87
2022-11-03T02:04:23.007Z,13.90
2022-11-03T02:06:57.888Z,13.89
2022-11-03T02:09:24.961Z,14.00
2022-11-03T02:12:08.131Z,13.95
2022-11-03T02:14:39.453Z,14.09
2022-11-03T02:17:12.502Z,14.01
2022-11-03T02:19:46.656Z,13.93
2022-11-03T02:22:36.119Z,14.04
2022-11-03T02:25:14.395Z,13.98
2022-11-03T02:27:41.569Z,13.99
2022-11-03T02:30:09.000Z,14.03
2022-11-03T02:33:01.700Z,14.11
2022-11-03T02:35:31.502Z,14.18
2022-11-03T02:38:03.573Z,14.14
2022-11-03T02:40:34.549Z,14.14
2022-11-03T02:43:03.580Z,14.16
2022-11-03T02:45:31.502Z,14.16
2022-11-03T02:48:01.796Z,14.18
2022-11-03T02:50:30.147Z,14.07
2022-11-03T02:52:57.839Z,14.05
2022-11-03T02:55:33.150Z,13.98
2022-11-03T02:58:06.012Z,13.80
2022-11-03T03:00:40.297Z,13.68
2022-11-03T03:03:22.919Z,13.55
2022-11-03T03:26:08.091Z,12.20
2022-11-03T03:28:47.832Z,12.46
2022-11-03T03:31:17.214Z,12.61
2022-11-03T03:33:47.983Z,12.74
2022-11-03T03:36:18.991Z,12.93
2022-11-03T03:38:50.903Z,12.99
2022-11-03T03:41:22.228Z,12.99
2022-11-03T03:43:55.731Z,13.04
2022-11-03T03:46:24.987Z,13.11
2022-11-03T03:48:51.878Z,13.12
2022-11-03T03:51:22.806Z,13.11
2022-11-03T03:53:53.493Z,13.09
2022-11-03T03:56:50.791Z,12.99
2022-11-03T03:59:17.628Z,13.14
2022-11-03T04:01:44.506Z,13.24
2022-11-03T04:04:11.363Z,13.21
2022-11-03T04:06:38.270Z,13.22
2022-11-03T04:09:05.148Z,13.21
2022-11-03T04:11:50.489Z,13.22
2022-11-03T04:14:35.848Z,13.24
2022-11-03T04:17:21.230Z,13.15
2022-11-03T04:20:06.696Z,13.15
2022-11-03T04:22:34.239Z,13.16
2022-11-03T04:25:01.196Z,13.11
2022-11-03T04:27:37.075Z,13.09
2022-11-03T04:30:18.284Z,13.09
2022-11-03T04:32:47.524Z,13.17
2022-11-03T04:35:22.314Z,13.10
2022-11-03T04:37:54.621Z,13.09
2022-11-03T04:40:21.603Z,13.03
2022-11-03T04:42:48.699Z,12.95
2022-11-03T04:45:30.198Z,12.99
2022-11-03T04:47:59.438Z,12.93
2022-11-03T04:50:26.578Z,12.91
2022-11-03T04:52:58.634Z,12.90
2022-11-03T04:55:26.692Z,12.91
2022-11-03T04:58:10.798Z,12.97
2022-11-03T05:00:37.736Z,12.80
2022-11-03T05:03:04.841Z,12.93
2022-11-03T05:05:31.680Z,13.00
2022-11-03T05:07:59.363Z,13.01
2022-11-03T05:10:29.376Z,13.04
2022-11-03T05:12:57.796Z,13.04
2022-11-03T05:15:43.895Z,13.06
2022-11-03T05:18:24.851Z,13.17
2022-11-03T05:20:58.290Z,13.13
2022-11-03T05:23:29.763Z,13.04
2022-11-03T05:25:58.514Z,13.05
2022-11-03T05:28:35.707Z,13.13
2022-11-03T05:31:14.044Z,13.29
2022-11-03T05:33:41.160Z,13.79
2022-11-03T05:36:19.576Z,14.33
2022-11-03T05:38:46.617Z,15.02
2022-11-03T05:41:22.924Z,15.29
2022-11-03T05:44:02.359Z,15.86
2022-11-03T05:46:35.403Z,16.40
2022-11-03T05:49:04.091Z,16.68
2022-11-03T05:51:43.782Z,17.29
2022-11-03T05:54:21.096Z,16.70
2022-11-03T05:56:48.336Z,17.48
2022-11-03T05:59:20.637Z,18.18
2022-11-03T06:01:47.711Z,18.94
2022-11-03T06:04:24.991Z,19.18
2022-11-03T06:06:59.424Z,19.95
2022-11-03T06:09:27.430Z,20.59
2022-11-03T06:11:57.390Z,20.23
2022-11-03T06:14:26.118Z,21.15
2022-11-03T06:16:57.073Z,20.51
2022-11-03T06:19:32.656Z,20.64
2022-11-03T06:22:18.293Z,21.22
2022-11-03T06:24:45.971Z,20.99
2022-11-03T06:27:16.453Z,20.80
2022-11-03T06:29:49.666Z,21.54
2022-11-03T06:32:16.790Z,22.46
2022-11-03T06:37:34.837Z,24.05
2022-11-03T06:40:10.577Z,23.21
2022-11-03T06:42:41.729Z,23.07
2022-11-03T06:45:22.609Z,22.79
2022-11-03T06:47:50.750Z,24.31
2022-11-03T06:50:22.621Z,24.04
2022-11-03T06:52:50.101Z,24.13
2022-11-03T06:55:26.605Z,23.85
2022-11-03T06:57:59.248Z,23.71
2022-11-03T07:00:38.570Z,24.06
2022-11-03T07:03:27.350Z,24.38
2022-11-03T07:06:01.969Z,24.56
2022-11-03T07:08:35.733Z,24.47
2022-11-03T07:11:14.505Z,25.42
2022-11-03T07:13:41.783Z,25.18
2022-11-03T07:16:25.500Z,24.79
2022-11-03T07:18:52.384Z,23.79
2022-11-03T07:21:29.079Z,23.95
2022-11-03T07:23:59.419Z,22.31
2022-11-03T07:26:27.296Z,20.88
2022-11-03T07:28:54.981Z,20.81
2022-11-03T07:31:26.660Z,21.43
2022-11-03T07:33:59.660Z,21.64
2022-11-03T07:36:31.109Z,21.60
2022-11-03T07:39:01.113Z,21.62
2022-11-03T07:41:34.260Z,21.67
2022-11-03T07:44:02.408Z,22.14
2022-11-03T07:46:29.516Z,23.35
2022-11-03T07:49:02.866Z,23.84
2022-11-03T07:51:35.098Z,23.55
2022-11-03T07:54:37.269Z,24.72
2022-11-03T07:57:05.801Z,26.37
2022-11-03T07:59:36.772Z,28.17
2022-11-03T08:02:32.449Z,28.25
2022-11-03T08:05:00.392Z,27.36
2022-11-03T08:07:31.636Z,27.40
2022-11-03T08:09:58.897Z,27.70
2022-11-03T08:12:25.743Z,26.26
2022-11-03T08:14:52.640Z,25.71
2022-11-03T08:17:19.428Z,25.73
2022-11-03T08:19:46.313Z,24.38
2022-11-03T08:22:13.320Z,23.62
2022-11-03T08:24:40.151Z,25.03
2022-11-03T08:27:07.057Z,26.34
2022-11-03T08:29:33.944Z,26.39
2022-11-03T08:32:00.916Z,28.26
2022-11-03T08:34:27.712Z,29.22
2022-11-03T08:36:54.541Z,29.83
2022-11-03T08:39:21.370Z,30.62
2022-11-03T08:41:48.144Z,27.31
2022-11-03T08:44:15.013Z,29.01
2022-11-03T08:46:41.852Z,28.19
2022-11-03T08:49:08.680Z,28.23
2022-11-03T08:51:37.878Z,28.45
2022-11-03T08:54:08.311Z,27.28
2022-11-03T08:56:35.187Z,28.77
2022-11-03T08:59:02.038Z,28.31
2022-11-03T09:01:29.358Z,27.32
2022-11-03T09:03:56.385Z,25.96
2022-11-03T09:06:23.346Z,26.32
2022-11-03T09:11:37.082Z,23.20
2022-11-03T09:14:04.104Z,23.45
2022-11-03T09:16:30.883Z,23.47
2022-11-03T09:18:57.784Z,22.99
2022-11-03T09:21:24.530Z,23.37
2022-11-03T09:23:51.500Z,25.00
2022-11-03T09:26:19.085Z,25.11
2022-11-03T09:28:46.116Z,25.91
2022-11-03T09:31:13.066Z,25.10
2022-11-03T09:33:39.936Z,24.60
2022-11-03T09:36:07.038Z,24.66
2022-11-03T09:38:33.864Z,25.68
2022-11-03T09:41:01.018Z,26.54
2022-11-03T09:43:27.908Z,25.70
2022-11-03T09:45:54.736Z,24.66
2022-11-03T09:48:21.626Z,24.31
2022-11-03T09:50:53.014Z,24.69
2022-11-03T09:53:20.806Z,25.17
2022-11-03T09:55:47.679Z,25.55
2022-11-03T09:58:16.401Z,25.46
2022-11-03T10:00:44.318Z,25.93
2022-11-03T10:03:13.473Z,24.92
2022-11-03T10:05:42.303Z,25.08
2022-11-03T10:08:35.558Z,24.93
2022-11-03T10:11:05.360Z,26.56
2022-11-03T10:13:39.348Z,25.94
2022-11-03T10:16:09.970Z,26.53
2022-11-03T10:18:37.556Z,26.91
2022-11-03T10:21:07.256Z,26.83
2022-11-03T10:23:34.158Z,26.06
2022-11-03T10:26:13.404Z,26.84
2022-11-03T10:28:40.568Z,26.35
2022-11-03T10:31:20.239Z,25.39
2022-11-03T10:33:55.602Z,25.12
2022-11-03T10:36:23.721Z,25.94
2022-11-03T10:38:50.791Z,25.68
2022-11-03T10:41:19.163Z,24.65
2022-11-03T10:44:20.467Z,25.47
2022-11-03T10:46:59.549Z,25.99
2022-11-03T10:49:32.237Z,24.57
2022-11-03T10:52:22.617Z,23.34
2022-11-03T10:54:56.422Z,23.39
2022-11-03T10:57:24.336Z,22.35
2022-11-03T10:59:53.777Z,22.43
2022-11-03T11:02:24.651Z,22.79
2022-11-03T11:04:59.413Z,23.59
2022-11-03T11:07:46.748Z,23.41
2022-11-03T11:10:13.618Z,22.82
2022-11-03T11:13:00.107Z,22.70
2022-11-03T11:15:40.809Z,23.10
2022-11-03T11:18:08.225Z,23.38
2022-11-03T11:20:41.841Z,23.35
2022-11-03T11:23:27.010Z,22.78
2022-11-03T11:26:09.258Z,24.14
2022-11-03T11:28:37.796Z,23.13
2022-11-03T11:31:22.677Z,23.47
2022-11-03T11:33:50.003Z,22.48
2022-11-03T11:36:25.102Z,22.73
2022-11-03T11:38:52.456Z,22.42
2022-11-03T11:41:20.944Z,21.54
2022-11-03T11:43:47.763Z,21.53
2022-11-03T11:46:24.012Z,22.06
2022-11-03T11:49:16.831Z,21.61
2022-11-03T11:51:43.631Z,21.46
2022-11-03T11:54:19.941Z,21.66
2022-11-03T11:56:49.036Z,21.71
2022-11-03T11:59:24.228Z,21.47
2022-11-03T12:01:54.606Z,20.38
2022-11-03T12:04:25.614Z,19.66
2022-11-03T12:06:52.462Z,18.95
2022-11-03T12:09:21.912Z,18.53
2022-11-03T12:11:56.428Z,18.39
2022-11-03T12:14:23.579Z,17.74
2022-11-03T12:16:51.232Z,17.38
2022-11-03T12:19:37.980Z,17.10
2022-11-03T12:22:07.444Z,17.14
2022-11-03T12:24:58.419Z,16.93
2022-11-03T12:27:25.201Z,16.88
2022-11-03T12:29:59.583Z,16.71
2022-11-03T12:32:33.605Z,16.77
2022-11-03T12:35:08.208Z,16.70
2022-11-03T12:37:35.619Z,16.68
2022-11-03T12:40:02.573Z,16.56
2022-11-03T12:42:29.538Z,16.72
2022-11-03T12:44:56.426Z,16.61
2022-11-03T12:47:23.398Z,16.50
2022-11-03T12:49:50.247Z,16.57
2022-11-03T12:52:17.088Z,16.57
2022-11-03T12:54:44.545Z,16.29
2022-11-03T12:57:11.428Z,16.39
2022-11-03T12:59:38.421Z,16.32
2022-11-03T13:02:05.678Z,16.27
2022-11-03T13:04:32.593Z,16.14
2022-11-03T13:06:59.480Z,15.93
2022-11-03T13:09:26.320Z,15.96
2022-11-03T13:12:11.795Z,16.08
2022-11-03T13:14:38.671Z,16.08
2022-11-03T13:17:05.515Z,16.08
2022-11-03T13:19:32.404Z,15.93
2022-11-03T13:21:59.255Z,15.87
2022-11-03T13:24:26.111Z,15.91
2022-11-03T13:26:52.994Z,15.87
2022-11-03T13:29:19.896Z,15.69
2022-11-03T13:31:46.739Z,15.75
2022-11-03T13:34:13.541Z,15.72
2022-11-03T13:36:40.581Z,15.76
2022-11-03T13:39:07.433Z,15.76
2022-11-03T13:41:34.263Z,15.67
2022-11-03T13:44:01.139Z,15.63
2022-11-03T13:46:27.970Z,15.59
2022-11-03T13:51:42.052Z,15.59
2022-11-03T13:59:42.883Z,15.54
2022-11-03T14:04:57.661Z,15.37
2022-11-03T14:07:24.501Z,15.33
2022-11-03T14:09:51.381Z,15.22
2022-11-03T14:12:34.843Z,15.22
2022-11-03T14:15:05.686Z,15.25
2022-11-03T14:17:32.931Z,15.12
2022-11-03T14:20:04.160Z,15.08
2022-11-03T14:22:31.786Z,15.06
2022-11-03T14:24:59.021Z,15.02
2022-11-03T14:27:26.157Z,14.96
2022-11-03T14:29:53.507Z,14.99
2022-11-03T14:32:20.912Z,14.97
2022-11-03T14:34:48.332Z,14.97
2022-11-03T14:37:15.934Z,14.90
2022-11-03T14:39:42.953Z,14.90
2022-11-03T14:42:17.193Z,14.96
2022-11-03T14:44:46.655Z,14.82
2022-11-03T14:47:17.679Z,14.76
2022-11-03T14:49:45.916Z,14.69
2022-11-03T14:52:13.772Z,14.65
2022-11-03T14:54:40.759Z,14.50
2022-11-03T14:57:09.756Z,14.52
2022-11-03T14:59:36.767Z,14.55
2022-11-03T15:02:04.592Z,14.54
2022-11-03T15:04:31.814Z,14.51
2022-11-03T15:06:58.843Z,14.53
2022-11-03T15:09:25.821Z,14.45
2022-11-03T15:27:20.935Z,13.67
2022-11-03T15:29:47.758Z,13.79
2022-11-03T15:32:15.325Z,13.90
2022-11-03T15:34:42.054Z,13.96
2022-11-03T15:37:09.209Z,14.01
2022-11-03T15:39:36.044Z,14.06
2022-11-03T15:42:03.000Z,14.11
2022-11-03T15:44:29.795Z,14.22
2022-11-03T15:46:56.589Z,14.27
2022-11-03T15:49:23.456Z,14.24
2022-11-03T15:51:50.249Z,14.28
2022-11-03T15:54:17.020Z,14.37
2022-11-03T15:56:43.793Z,14.32
2022-11-03T15:59:10.544Z,14.29
2022-11-03T16:01:37.515Z,14.31
2022-11-03T16:04:04.434Z,14.30
2022-11-03T16:09:18.100Z,14.25
2022-11-03T16:11:44.977Z,14.23
2022-11-03T16:14:11.791Z,14.22
2022-11-03T16:16:38.615Z,14.26
2022-11-03T16:19:05.470Z,14.31
2022-11-03T16:21:32.302Z,14.35
2022-11-03T16:23:59.207Z,14.33
2022-11-03T16:26:26.062Z,14.39
2022-11-03T16:28:52.893Z,14.32
2022-11-03T16:31:19.698Z,14.35
2022-11-03T16:33:46.517Z,14.33
2022-11-03T16:36:13.437Z,14.27
2022-11-03T16:38:40.285Z,14.27
2022-11-03T16:41:07.196Z,14.30
2022-11-03T16:43:34.020Z,14.26
2022-11-03T16:46:00.789Z,14.15
2022-11-03T16:48:27.644Z,14.23
2022-11-03T16:51:00.322Z,14.17
2022-11-03T16:53:27.130Z,14.08
2022-11-03T16:55:53.990Z,14.08
2022-11-03T16:58:21.271Z,14.09
2022-11-03T17:00:48.764Z,14.07
2022-11-03T17:03:16.445Z,14.01
2022-11-03T17:05:43.793Z,13.82
2022-11-03T17:08:38.577Z,13.76
2022-11-03T17:10:58.832Z,13.87
2022-11-03T17:13:26.392Z,13.83
2022-11-03T17:15:53.835Z,13.86
2022-11-03T17:18:21.209Z,13.81
2022-11-03T17:20:48.540Z,13.79
2022-11-03T17:23:15.661Z,13.72
2022-11-03T17:25:42.743Z,13.73
2022-11-03T17:28:11.695Z,13.68
2022-11-03T17:30:39.490Z,13.65
2022-11-03T17:33:09.173Z,13.58
2022-11-03T17:35:42.169Z,13.58
2022-11-03T17:38:14.312Z,13.48
2022-11-03T17:40:50.641Z,13.43
2022-11-03T17:43:21.165Z,13.45
2022-11-03T17:45:48.397Z,13.42
2022-11-03T17:48:15.680Z,13.36
2022-11-03T17:50:46.428Z,13.39
2022-11-03T17:53:23.089Z,13.36
2022-11-03T17:56:23.473Z,13.32
2022-11-03T17:58:46.324Z,13.26
2022-11-03T18:01:20.293Z,13.21
2022-11-03T18:03:47.352Z,13.17
2022-11-03T18:06:19.603Z,13.11
2022-11-03T18:08:47.635Z,13.10
2022-11-03T18:11:44.843Z,13.04
2022-11-03T18:14:12.092Z,13.01
2022-11-03T18:16:39.355Z,13.04
2022-11-03T18:19:09.989Z,12.97
2022-11-03T18:21:36.988Z,12.97
2022-11-03T18:24:13.523Z,12.94
2022-11-03T18:26:40.956Z,12.91
2022-11-03T18:31:50.576Z,12.76
2022-11-03T18:34:24.380Z,12.80
2022-11-03T18:36:52.926Z,12.67
2022-11-03T18:39:25.896Z,12.62
2022-11-03T18:41:53.438Z,12.62
2022-11-03T18:44:24.238Z,12.67
2022-11-03T18:46:52.551Z,12.64
2022-11-03T18:49:19.735Z,12.56
2022-11-03T18:52:03.563Z,12.54
2022-11-03T18:54:32.913Z,12.59
2022-11-03T18:57:00.334Z,12.53
2022-11-03T18:59:31.965Z,12.46
2022-11-03T19:01:59.503Z,12.46
2022-11-03T19:04:26.677Z,12.37
2022-11-03T19:06:53.949Z,12.36
2022-11-03T19:09:26.110Z,12.37
2022-11-03T19:11:56.482Z,12.37
2022-11-03T19:14:28.635Z,12.35
2022-11-03T19:19:47.126Z,12.34
2022-11-03T19:22:16.742Z,12.23
2022-11-03T19:24:43.876Z,12.24
2022-11-03T19:27:33.907Z,12.22
2022-11-03T19:30:03.770Z,12.05
2022-11-03T19:32:37.365Z,12.00
2022-11-03T19:35:17.140Z,12.04
2022-11-03T19:37:44.538Z,12.03
2022-11-03T19:40:17.997Z,11.98
2022-11-03T19:42:45.516Z,11.93
2022-11-03T19:45:17.940Z,12.00
2022-11-03T19:50:52.671Z,11.94
2022-11-03T19:53:23.653Z,11.95
2022-11-03T19:55:50.779Z,11.98
2022-11-03T19:58:20.920Z,11.98
2022-11-03T20:00:49.329Z,11.94
2022-11-03T20:03:16.830Z,11.97
2022-11-03T20:05:49.350Z,11.89
2022-11-03T20:08:20.705Z,11.92
2022-11-03T20:10:48.264Z,11.89
2022-11-03T20:13:19.185Z,11.86
2022-11-03T20:15:46.859Z,11.87
2022-11-03T20:18:14.267Z,11.85
2022-11-03T20:20:43.620Z,11.87
2022-11-03T20:23:21.461Z,11.90
2022-11-03T20:25:49.274Z,11.92
2022-11-03T20:28:22.949Z,11.98
2022-11-03T20:30:50.263Z,12.02
2022-11-03T20:33:19.520Z,12.03
2022-11-03T20:35:48.148Z,12.06
2022-11-03T20:38:19.172Z,12.05
2022-11-03T20:40:48.050Z,12.08
2022-11-03T20:43:24.461Z,12.11
2022-11-03T20:45:51.324Z,12.08
2022-11-03T20:48:18.341Z,12.05
2022-11-03T20:50:45.277Z,12.06
2022-11-03T20:53:16.414Z,12.06
2022-11-03T20:55:43.776Z,12.09
2022-11-03T20:58:16.421Z,12.01
2022-11-03T21:00:45.354Z,12.06
2022-11-03T21:03:37.744Z,12.06
2022-11-03T21:06:06.280Z,12.07
2022-11-03T21:08:33.133Z,12.09
2022-11-03T21:11:19.976Z,12.03
2022-11-03T21:13:47.089Z,12.10
2022-11-03T21:16:32.600Z,12.10
2022-11-03T21:19:18.349Z,12.10
2022-11-03T21:21:45.202Z,12.15
2022-11-03T21:24:12.835Z,12.32
2022-11-03T21:26:41.577Z,12.33
2022-11-03T21:29:08.393Z,12.36
2022-11-03T21:31:35.222Z,12.47
2022-11-03T21:34:02.172Z,12.59
2022-11-03T21:36:29.029Z,12.65
2022-11-03T21:38:56.104Z,12.69
2022-11-03T21:41:41.388Z,12.79
2022-11-03T21:44:17.283Z,12.85
2022-11-03T21:46:44.737Z,12.96
2022-11-03T21:49:30.005Z,13.02
2022-11-03T21:51:57.376Z,13.13
2022-11-03T21:54:24.261Z,13.13
2022-11-03T21:56:51.192Z,13.25
2022-11-03T21:59:18.017Z,13.30
2022-11-03T22:01:44.966Z,13.32
2022-11-03T22:04:11.874Z,13.50
2022-11-03T22:06:38.856Z,13.55
2022-11-03T22:09:05.795Z,13.60
2022-11-03T22:11:32.643Z,13.66
2022-11-03T22:14:01.594Z,13.68
2022-11-03T22:16:38.412Z,13.71
2022-11-03T22:19:36.605Z,13.68
2022-11-03T22:22:24.220Z,13.69
2022-11-03T22:25:09.626Z,13.76
2022-11-03T22:27:36.497Z,13.85
2022-11-03T22:30:22.729Z,13.87
2022-11-03T22:32:55.478Z,13.85
2022-11-03T22:35:42.486Z,13.81
2022-11-03T22:38:14.263Z,13.80
2022-11-03T22:41:01.068Z,13.70
2022-11-03T22:43:46.713Z,13.51
2022-11-03T22:46:15.764Z,13.52
2022-11-03T22:48:42.634Z,13.46
2022-11-03T22:51:13.306Z,13.44
2022-11-03T22:53:58.844Z,13.41
2022-11-03T22:56:27.597Z,13.29
2022-11-03T22:58:54.545Z,13.31
2022-11-03T23:01:23.563Z,13.29
2022-11-03T23:03:50.403Z,13.25
2022-11-03T23:06:22.528Z,13.15
2022-11-03T23:08:50.431Z,13.08
2022-11-03T23:11:25.801Z,13.07
2022-11-03T23:13:58.219Z,13.04
2022-11-03T23:16:27.321Z,13.02
2022-11-03T23:19:13.379Z,13.04
2022-11-03T23:21:40.547Z,12.91
2022-11-03T23:24:26.144Z,12.80
2022-11-03T23:26:53.153Z,12.76
2022-11-03T23:29:20.046Z,12.76
2022-11-03T23:31:47.166Z,12.72
2022-11-03T23:34:14.729Z,12.69
2022-11-03T23:36:41.842Z,12.53
2022-11-03T23:39:13.203Z,12.61
2022-11-03T23:41:40.110Z,12.39
2022-11-03T23:44:07.137Z,12.33
2022-11-03T23:46:52.485Z,12.32
2022-11-03T23:49:19.318Z,12.25
2022-11-03T23:51:46.186Z,12.23
2022-11-03T23:54:13.637Z,12.26
2022-11-03T23:57:03.650Z,12.20
2022-11-03T23:59:32.366Z,12.21
